• Join FlightAware (Why Join?)
  • Login
  • US Flag 
10:48PM EST


 

Airport Tracker/Info


-or-


 

Live Flight TrackerFlight Track Log ✈ FDX1151 ✈ 01-Nov-2013 ✈ KAFW - KLAX

Flight Track Log - Related Links

Times and Time Zones

All times are in EDT time to prevent confusion due to time zone crossing. See the FDX1151 flight status page for this flight to view local times or setup timezone preferences in your user account.

Time Position Orientation Groundspeed Altitude Reporting Facility
EDT Latitude Longitude Course Direction KTS MPH feet Rate Location/Type
04:45AM 32.9817 -97.3167 360° North 179 206 800  Level FlightAware ADS-B (KAFW)
04:46AM 32.9650 -97.3137 171° South 168 193 1,900 2,340 Climbing FlightAware ADS-B (KAFW)
04:46AM 32.9546 -97.3134 179° South 191 220 2,100 1,140 Climbing FlightAware ADS-B (KAFW)
04:46AM 32.9473 -97.3134 180° South 204 235 2,300 1,500 Climbing FlightAware ADS-B (KAFW)
04:46AM 32.9355 -97.3145 184° South 215 247 2,600 1,800 Climbing FlightAware ADS-B (KAFW)
04:46AM 32.9283 -97.3177 200° South 223 257 2,900 2,100 Climbing FlightAware ADS-B (KAFW)
04:47AM 32.9171 -97.3280 218° Southwest 240 276 3,300 2,100 Climbing FlightAware ADS-B (KAFW)
04:47AM 32.9118 -97.3366 234° Southwest 250 288 3,600 3,000 Climbing FlightAware ADS-B (KAFW)
04:47AM 32.9055 -97.3510 242° Southwest 246 283 4,300 3,600 Climbing FlightAware ADS-B (KAFW)
04:47AM 32.9011 -97.3707 255° West 245 282 5,300 3,540 Climbing FlightAware ADS-B (KAFW)
04:48AM 32.8982 -97.3992 263° West 250 288 6,500 3,360 Climbing FlightAware ADS-B (KAFW)
04:48AM 32.8960 -97.4284 265° West 254 292 7,600 3,420 Climbing FlightAware ADS-B (KAFW)
04:48AM 32.8941 -97.4561 265° West 250 288 8,800 3,360 Climbing FlightAware ADS-B (KAFW)
04:49AM 32.8918 -97.4834 264° West 251 289 9,900 1,980 Climbing FlightAware ADS-B (KAFW)
04:49AM 32.8873 -97.5319 264° West 292 336 10,600 1,080 Climbing FlightAware ADS-B (KAFW)
04:50AM 32.8812 -97.5947 263° West 341 392 11,200 1,980 Climbing FlightAware ADS-B (KAFW)
04:50AM 32.8750 -97.6526 263° West 344 396 12,900 3,060 Climbing FlightAware ADS-B (KAFW)
04:51AM 32.8756 -97.7102 271° West 356 410 14,300 2,940 Climbing FlightAware ADS-B (KAFW)
04:52AM 32.8937 -97.8112 282° West 365 420 16,900 3,000 Climbing FlightAware ADS-B (KAFW)
04:52AM 32.9064 -97.8838 282° West 362 417 18,800 2,820 Climbing FlightAware ADS-B (KAFW)
04:53AM 32.9170 -97.9430 282° West 366 421 20,100 2,460 Climbing FlightAware
04:53AM 32.9330 -98.0350 282° West 375 432 21,900 2,220 Climbing FlightAware
04:54AM 32.9470 -98.1140 282° West 381 438 23,300 1,920 Climbing FlightAware
04:55AM 32.9640 -98.2150 281° West 392 451 24,800 1,920 Climbing FlightAware
04:56AM 32.9790 -98.3040 281° West 399 459 26,200 1,920 Climbing FlightAware
04:56AM 32.9920 -98.3820 281° West 402 463 27,300 1,620 Climbing FlightAware
04:57AM 33.0040 -98.4530 281° West 411 473 28,100 1,440 Climbing FlightAware
04:57AM 33.0170 -98.5330 281° West 417 480 29,000 1,620 Climbing FlightAware
04:58AM 33.0330 -98.6280 281° West 418 481 30,300 1,860 Climbing FlightAware
04:59AM 33.0470 -98.7090 282° West 415 478 31,400 1,380 Climbing FlightAware
04:59AM 33.0620 -98.7990 281° West 423 487 32,100 960 Climbing FlightAware
05:00AM 33.0740 -98.8740 281° West 430 495 32,600 960 Climbing FlightAware
05:01AM 33.0890 -98.9670 281° West 435 501 33,300 1,020 Climbing FlightAware
05:01AM 33.1030 -99.0500 281° West 438 504 33,900 600 Climbing FlightAware
05:02AM 33.1140 -99.1160 281° West 442 509 34,000 60 Climbing FlightAware
05:02AM 33.1320 -99.2290 281° West 440 506 34,000  Level FlightAware
05:03AM 33.1420 -99.2930 281° West 438 504 34,000  Level FlightAware
05:03AM 33.1550 -99.3770 280° West 439 505 34,000  Level FlightAware
05:04AM 33.1740 -99.4960 281° West 441 507 34,000  Level FlightAware
05:05AM 33.1880 -99.5830 281° West 444 511 34,000  Level FlightAware
05:06AM 33.2030 -99.6740 281° West 445 512 34,000  Level FlightAware
05:07AM 33.2280 -99.8410 280° West 444 511 34,000  Level FlightAware
05:07AM 33.2410 -99.9200 281° West 445 512 34,000  Level FlightAware
05:08AM 33.2580 -100.0270 281° West 447 514 34,000  Level FlightAware
05:08AM 33.2710 -100.1100 281° West 449 517 34,000  Level FlightAware
05:09AM 33.2830 -100.1930 280° West 449 517 34,000  Level FlightAware
05:10AM 33.2990 -100.2950 281° West 449 517 34,000  Level FlightAware
05:10AM 33.3130 -100.3900 280° West 449 517 34,000  Level FlightAware
05:11AM 33.3350 -100.5350 280° West 449 517 34,000  Level FlightAware
05:12AM 33.3460 -100.6080 280° West 449 517 34,000  Level FlightAware
05:12AM 33.3580 -100.6890 280° West 449 517 34,000  Level FlightAware
05:13AM 33.3730 -100.7890 280° West 450 518 34,000  Level FlightAware
05:14AM 33.3870 -100.8850 280° West 450 518 34,000  Level FlightAware
05:14AM 33.4020 -100.9880 280° West 451 519 34,000  Level FlightAware
05:15AM 33.4150 -101.0770 280° West 452 520 34,000  Level FlightAware
05:16AM 33.4310 -101.1850 280° West 451 519 34,000  Level FlightAware
05:16AM 33.4420 -101.2620 280° West 451 519 34,000  Level FlightAware
05:17AM 33.4540 -101.3480 280° West 451 519 34,000  Level FlightAware
05:18AM 33.4700 -101.4610 280° West 453 521 34,000  Level FlightAware
05:18AM 33.4860 -101.5750 280° West 456 525 34,000  Level FlightAware
05:19AM 33.4980 -101.6600 280° West 457 526 34,000  Level FlightAware
05:20AM 33.5160 -101.7830 280° West 460 529 34,000 60 Level FlightAware
05:20AM 33.5300 -101.8860 279° West 459 528 34,100 60 Climbing FlightAware
05:21AM 33.5470 -102.0090 279° West 461 531 34,100  Level FlightAware
05:22AM 33.5590 -102.1020 279° West 458 527 34,100 -120 Level FlightAware
05:23AM 33.5730 -102.2020 280° West 459 528 34,000 -120 Descending FlightAware
05:23AM 33.5850 -102.2850 280° West 460 529 34,000  Level FlightAware
05:24AM 33.5950 -102.3660 278° West 460 529 34,000  Level FlightAware
05:24AM 33.6070 -102.4540 279° West 459 528 34,000  Level FlightAware
05:25AM 33.6230 -102.5750 279° West 458 527 34,000  Level FlightAware
05:26AM 33.6380 -102.6850 279° West 458 527 34,000  Level FlightAware
05:26AM 33.6510 -102.7830 279° West 459 528 34,000  Level FlightAware
05:27AM 33.6600 -102.8540 279° West 458 527 34,000  Level FlightAware
05:27AM 33.6710 -102.9440 278° West 457 526 34,000  Level FlightAware
05:28AM 33.6830 -103.0340 279° West 457 526 34,000  Level FlightAware
05:29AM 33.6980 -103.1520 279° West 457 526 34,000  Level FlightAware
05:30AM 33.7110 -103.2550 279° West 457 526 34,000  Level FlightAware
05:30AM 33.7250 -103.3620 279° West 455 524 34,000  Level FlightAware
05:31AM 33.7350 -103.4420 279° West 455 524 34,000  Level FlightAware
05:31AM 33.7480 -103.5450 279° West 454 522 34,000  Level FlightAware
05:32AM 33.7620 -103.6550 279° West 455 524 34,000  Level FlightAware
05:33AM 33.7740 -103.7530 278° West 458 527 34,000  Level FlightAware
05:34AM 33.7890 -103.8790 278° West 460 529 34,000 60 Level FlightAware
05:34AM 33.8000 -103.9700 278° West 460 529 34,100  Climbing FlightAware
05:35AM 33.8150 -104.0940 278° West 462 532 34,000 -120 Descending FlightAware
05:36AM 33.8270 -104.1960 278° West 462 532 34,000 60 Level FlightAware
05:36AM 33.8340 -104.2570 278° West 463 533 34,100 60 Climbing FlightAware
05:37AM 33.8440 -104.3440 278° West 463 533 34,100  Level FlightAware
05:37AM 33.8540 -104.4240 279° West 463 533 34,100  Level FlightAware
05:38AM 33.8630 -104.5030 278° West 463 533 34,100  Level FlightAware
05:39AM 33.8780 -104.6330 278° West 463 533 34,100 -60 Level FlightAware
05:40AM 33.8980 -104.8080 278° West 458 527 34,000 -120 Descending FlightAware
05:40AM 33.9070 -104.8890 278° West 458 527 34,000  Level FlightAware
05:41AM 33.9170 -104.9720 278° West 457 526 34,000  Level FlightAware
05:42AM 33.9310 -105.1010 277° West 456 525 34,000  Level FlightAware
05:42AM 33.9420 -105.1970 278° West 455 524 34,000  Level FlightAware
05:43AM 33.9550 -105.3150 278° West 457 526 34,000  Level FlightAware
05:44AM 33.9660 -105.4140 278° West 458 527 34,000  Level FlightAware
05:44AM 33.9770 -105.5180 277° West 459 528 34,000  Level FlightAware
05:45AM 33.9880 -105.6160 278° West 459 528 34,000  Level FlightAware
05:46AM 33.9980 -105.7180 277° West 460 529 34,000  Level FlightAware
05:46AM 34.0080 -105.8100 277° West 459 528 34,000  Level FlightAware
05:47AM 34.0190 -105.9270 277° West 459 528 34,000  Level FlightAware
05:48AM 34.0230 -106.0240 273° West 458 527 34,000  Level FlightAware
05:48AM 34.0290 -106.1280 274° West 459 528 34,000  Level FlightAware
05:49AM 34.0320 -106.2090 273° West 459 528 34,000  Level FlightAware
05:50AM 34.0360 -106.2870 274° West 459 528 34,000  Level FlightAware
05:51AM 34.0410 -106.4200 273° West 459 528 34,000  Level FlightAware
05:52AM 34.0460 -106.5310 273° West 459 528 34,000  Level FlightAware
05:52AM 34.0500 -106.6090 274° West 459 528 34,000  Level FlightAware
05:53AM 34.0540 -106.7130 273° West 459 528 34,000  Level FlightAware
05:53AM 34.0560 -106.7660 273° West 459 528 34,000  Level FlightAware
05:54AM 34.0600 -106.8440 274° West 459 528 34,000  Level FlightAware
05:55AM 34.0640 -106.9510 273° West 459 528 34,000  Level FlightAware
05:56AM 34.0690 -107.0550 273° West 459 528 34,000  Level FlightAware
05:57AM 34.0750 -107.1860 273° West 459 528 34,000  Level FlightAware
05:57AM 34.0780 -107.2640 273° West 459 528 34,000  Level FlightAware
05:58AM 34.0830 -107.3710 273° West 459 528 34,000  Level FlightAware
05:58AM 34.0850 -107.4230 273° West 459 528 34,000  Level FlightAware
05:59AM 34.0936 -107.7200 273° West 464 534 34,000  Level Albuquerque Center
06:00AM 34.0997 -107.8775 273° West 468 539 34,000  Level Albuquerque Center
06:01AM 34.1044 -108.0325 272° West 465 535 34,000  Level Albuquerque Center
06:02AM 34.1103 -108.1872 273° West 461 531 34,000  Level Albuquerque Center
06:03AM 34.1144 -108.3403 272° West 459 528 34,000  Level Albuquerque Center
06:04AM 34.1192 -108.5056 272° West 456 525 34,000  Level Albuquerque Center
06:05AM 34.1242 -108.6567 272° West 454 522 34,000  Level Albuquerque Center
06:06AM 34.1294 -108.8292 272° West 457 526 34,000  Level Albuquerque Center
06:07AM 34.1319 -108.9800 271° West 462 532 34,000  Level Albuquerque Center
06:12AM 34.1490 -109.7490 271° West 471 542 34,000  Level FlightAware
06:13AM 34.1510 -109.9000 271° West 470 541 34,000  Level FlightAware
06:13AM 34.1530 -109.9870 272° West 470 541 34,000  Level FlightAware
06:14AM 34.1540 -110.0730 271° West 471 542 34,000  Level FlightAware
06:15AM 34.1560 -110.1970 271° West 471 542 34,000  Level FlightAware
06:15AM 34.1580 -110.3020 271° West 473 544 34,000  Level FlightAware
06:16AM 34.1590 -110.3860 271° West 476 548 34,000  Level FlightAware
06:17AM 34.1600 -110.4880 271° West 477 549 34,000  Level FlightAware
06:17AM 34.1610 -110.5510 271° West 478 550 34,000 60 Level FlightAware
06:18AM 34.1620 -110.6640 271° West 480 552 34,100 60 Climbing FlightAware
06:18AM 34.1630 -110.7870 271° West 480 552 34,100 -120 Level FlightAware
06:19AM 34.1640 -110.8940 271° West 479 551 34,000 -120 Descending FlightAware
06:20AM 34.1650 -111.0150 271° West 481 554 34,000  Level FlightAware
06:20AM 34.1660 -111.0980 271° West 480 552 34,000  Level FlightAware
06:22AM 34.1635 -110.8010 90° East 480 552 34,000  Level FlightAware ADS-B
06:23AM 34.1690 -111.4720 271° West 481 554 34,000  Level FlightAware
06:23AM 34.1690 -111.5710 270° West 481 554 34,000  Level FlightAware
06:24AM 34.1690 -111.7219 270° West 482 555 34,000  Level FlightAware ADS-B
06:25AM 34.1692 -111.8188 270° West 482 555 34,000  Level FlightAware ADS-B
06:25AM 34.1693 -111.9076 270° West 483 556 34,000  Level FlightAware ADS-B
06:26AM 34.1690 -112.0390 270° West 484 557 34,000  Level FlightAware
06:27AM 34.1690 -112.1530 270° West 485 558 34,000  Level FlightAware
06:28AM 34.1688 -112.3339 270° West 485 558 34,000  Level FlightAware ADS-B
06:29AM 34.1685 -112.4614 270° West 487 560 34,000  Level FlightAware ADS-B
06:29AM 34.1681 -112.5565 270° West 487 560 34,000  Level FlightAware ADS-B
06:30AM 34.1680 -112.6430 270° West 488 562 34,000  Level FlightAware
06:31AM 34.1670 -112.7470 269° West 489 563 34,000  Level FlightAware
06:31AM 34.1660 -112.8670 269° West 489 563 34,000  Level FlightAware
06:32AM 34.1660 -112.9600 270° West 489 563 34,000  Level FlightAware
06:33AM 34.1650 -113.0690 269° West 489 563 34,000  Level FlightAware
06:33AM 34.1640 -113.1730 269° West 489 563 34,000  Level FlightAware
06:34AM 34.1630 -113.2680 269° West 489 563 34,000  Level FlightAware
06:34AM 34.1620 -113.3740 269° West 489 563 34,000  Level FlightAware
06:35AM 34.1610 -113.4720 269° West 489 563 34,000  Level FlightAware
06:36AM 34.1600 -113.5820 269° West 491 565 34,000  Level FlightAware
06:36AM 34.1580 -113.6910 269° West 493 567 34,000  Level FlightAware
06:37AM 34.1570 -113.7630 269° West 494 568 34,000 60 Level FlightAware
06:37AM 34.1550 -113.8710 269° West 495 570 34,100 60 Climbing FlightAware
06:38AM 34.1540 -113.9810 269° West 496 571 34,100 -60 Level FlightAware
06:39AM 34.1500 -114.1810 269° West 497 572 34,000 -60 Descending FlightAware
06:40AM 34.1490 -114.2770 269° West 496 571 34,000  Level FlightAware
06:41AM 34.1470 -114.3990 269° West 496 571 34,000  Level FlightAware
06:42AM 34.1430 -114.5480 268° West 496 571 34,000  Level FlightAware
06:42AM 34.1410 -114.6860 269° West 495 570 34,000  Level FlightAware
06:43AM 34.1380 -114.8080 268° West 495 570 34,000  Level FlightAware
06:44AM 34.1350 -114.9340 268° West 495 570 34,000  Level FlightAware
06:45AM 34.1320 -115.0590 268° West 496 571 34,000  Level FlightAware
06:45AM 34.1290 -115.1830 268° West 495 570 34,000  Level FlightAware
06:46AM 34.1270 -115.2520 268° West 495 570 34,000  Level FlightAware
06:47AM 34.1230 -115.3900 268° West 496 571 34,000  Level FlightAware
06:47AM 34.1210 -115.4760 268° West 496 571 34,000  Level FlightAware
06:48AM 34.1143 -115.7110 268° West 498 573 34,000  Level FlightAware ADS-B
06:49AM 34.1020 -115.8380 263° West 498 573 34,000 -300 Level FlightAware
06:50AM 34.0890 -115.9280 260° West 495 570 33,600 -1,380 Descending FlightAware
06:51AM 34.0690 -116.0660 260° West 488 562 32,000 -1,980 Descending FlightAware
06:51AM 34.0580 -116.1450 260° West 478 550 31,000 -2,100 Descending FlightAware
06:52AM 34.0389 -116.2755 260° West 467 537 29,100 -1,980 Descending FlightAware ADS-B
06:53AM 34.0240 -116.3750 260° West 464 534 28,200 -1,860 Descending FlightAware ADS-B
06:53AM 34.0117 -116.4560 260° West 458 527 27,100 -2,160 Descending FlightAware ADS-B
06:54AM 34.0013 -116.5709 264° West 445 512 25,300 -2,220 Descending FlightAware ADS-B
06:55AM 33.9871 -116.7210 264° West 434 499 23,200 -2,160 Descending FlightAware ADS-B
06:56AM 33.9803 -116.7974 264° West 429 494 22,100 -2,340 Descending FlightAware ADS-B
06:56AM 33.9733 -116.8828 264° West 428 493 20,600 -2,460 Descending FlightAware ADS-B
06:57AM 33.9667 -116.9611 264° West 427 491 19,400 -2,160 Descending FlightAware ADS-B
06:57AM 33.9611 -117.0315 265° West 422 486 18,300 -2,220 Descending FlightAware ADS-B
06:58AM 33.9552 -117.1037 264° West 418 481 17,100 -1,920 Descending FlightAware ADS-B
06:58AM 33.9493 -117.1725 264° West 406 467 16,400 -1,320 Descending FlightAware ADS-B
06:59AM 33.9436 -117.2385 264° West 387 445 15,800 -1,020 Descending FlightAware ADS-B
06:59AM 33.9375 -117.3106 264° West 382 440 15,300 -840 Descending FlightAware ADS-B
07:00AM 33.9312 -117.3866 264° West 379 436 14,900 -780 Descending FlightAware ADS-B
07:00AM 33.9251 -117.4509 264° West 370 426 14,500 -840 Descending FlightAware ADS-B
07:01AM 33.9201 -117.5156 265° West 362 417 14,000 -780 Descending FlightAware ADS-B
07:01AM 33.9229 -117.5594 274° West 358 412 13,800 -780 Descending FlightAware ADS-B
07:02AM 33.9344 -117.6355 280° West 354 407 13,300 -780 Descending FlightAware ADS-B
07:03AM 33.9426 -117.6958 279° West 354 407 12,900 -780 Descending FlightAware ADS-B
07:03AM 33.9521 -117.7717 279° West 353 406 12,400 -780 Descending FlightAware ADS-B
07:04AM 33.9600 -117.8318 279° West 352 405 12,000 -660 Descending FlightAware ADS-B
07:04AM 33.9663 -117.8803 279° West 353 406 11,700 -900 Descending FlightAware ADS-B
07:05AM 33.9698 -117.9073 279° West 345 397 11,100 -900 Descending FlightAware ADS-B
07:05AM 33.9772 -117.9996 276° West 335 386 10,900 -660 Descending FlightAware ADS-B
07:06AM 33.9707 -118.0578 262° West 323 372 10,500 -720 Descending FlightAware ADS-B
07:06AM 33.9657 -118.1272 265° West 315 362 10,100 -660 Descending FlightAware ADS-B
07:06AM 33.9661 -118.1340 274° West 305 351 10,000 -720 Descending FlightAware ADS-B
07:07AM 33.9771 -118.2136 279° West 298 343 9,500 -780 Descending FlightAware ADS-B
07:08AM 33.9853 -118.2731 279° West 289 333 9,000 -840 Descending FlightAware ADS-B
07:08AM 33.9940 -118.3390 279° West 273 314 8,400 -780 Descending FlightAware
07:09AM 34.0040 -118.4090 280° West 255 293 7,900 -420 Descending FlightAware
07:10AM 34.0112 -118.4779 277° West 257 296 7,700 -1,080 Descending FlightAware ADS-B
07:11AM 34.0150 -118.5385 274° West 255 293 6,300 -1,680 Descending FlightAware ADS-B
07:11AM 34.0171 -118.5647 276° West 240 276 6,000 -900 Descending FlightAware ADS-B
07:12AM 34.0190 -118.5930 275° West 225 259 5,700 -1,080 Descending FlightAware ADS-B
07:12AM 34.0205 -118.6227 273° West 219 252 5,200 -1,560 Descending FlightAware ADS-B
07:13AM 33.9960 -118.6530 226° Southwest 205 236 4,100 -1,560 Descending FlightAware
07:13AM 33.9480 -118.6470 174° South 184 212 2,800 -1,260 Descending FlightAware
07:14AM 33.9310 -118.6110 120° Southeast 185 213 2,100 -900 Descending FlightAware
07:15AM 33.9280 -118.5940 102° East 182 209 1,900 -180 Descending FlightAware
07:15AM 33.9240 -118.5400 95° East 166 191 1,900 -240 Level FlightAware
07:16AM 33.9250 -118.5210 86° East 173 199 1,600 -720 Descending FlightAware
07:17AM 33.9316 -118.4611 82° East 143 165 800 -780 Descending FlightAware ADS-B
07:17AM 33.9330 -118.4469 83° East 139 160 500 -840 Descending FlightAware ADS-B
07:18AM 33.9346 -118.4318 83° East 136 157 300 -420 Descending FlightAware ADS-B
07:18AM 33.9380 -118.4040 82° East 138 159 100 -300 Descending FlightAware
07:26AM 33.9333 -118.4000 101° East  Level FlightAware Approximate
07:27AM 33.9425 -118.4081 101° East  Level Estimated